createdAt,value
2023-02-23T00:01:32.959Z,17.77
2023-02-23T00:04:19.119Z,16.70
2023-02-23T00:07:06.484Z,18.25
2023-02-23T00:09:57.043Z,17.60
2023-02-23T00:12:45.891Z,17.05
2023-02-23T00:15:32.059Z,17.73
2023-02-23T00:18:17.642Z,18.00
2023-02-23T00:21:03.835Z,17.90
2023-02-23T00:23:59.193Z,17.90
2023-02-23T00:26:47.782Z,16.95
2023-02-23T00:29:39.516Z,16.38
2023-02-23T00:32:29.056Z,16.50
2023-02-23T00:35:19.201Z,16.13
2023-02-23T00:38:04.976Z,16.17
2023-02-23T00:40:52.022Z,17.25
2023-02-23T00:46:52.704Z,14.98
2023-02-23T00:49:38.432Z,16.25
2023-02-23T00:52:23.834Z,15.25
2023-02-23T00:55:13.648Z,16.45
2023-02-23T00:57:59.505Z,15.38
2023-02-23T01:00:45.606Z,14.00
2023-02-23T01:03:31.600Z,15.23
2023-02-23T01:06:18.136Z,16.42
2023-02-23T01:09:09.828Z,14.35
2023-02-23T01:11:57.264Z,16.05
2023-02-23T01:14:43.342Z,14.73
2023-02-23T01:17:30.912Z,14.73
2023-02-23T01:20:19.967Z,15.55
2023-02-23T01:23:07.486Z,15.57
2023-02-23T01:25:53.334Z,15.65
2023-02-23T01:28:42.080Z,15.32
2023-02-23T01:31:51.225Z,14.77
2023-02-23T01:34:55.725Z,15.80
2023-02-23T01:38:00.505Z,15.93
2023-02-23T01:41:07.341Z,15.65
2023-02-23T01:44:15.064Z,14.93
2023-02-23T01:47:20.743Z,15.63
2023-02-23T01:50:37.933Z,15.77
2023-02-23T01:53:55.282Z,14.85
2023-02-23T01:56:49.294Z,15.30
2023-02-23T01:59:49.425Z,15.60
2023-02-23T02:02:35.496Z,16.30
2023-02-23T02:05:21.668Z,16.80
2023-02-23T02:08:10.483Z,16.08
2023-02-23T02:10:57.657Z,15.45
2023-02-23T02:13:44.848Z,16.67
2023-02-23T02:16:52.895Z,15.80
2023-02-23T02:19:59.367Z,16.60
2023-02-23T02:23:08.591Z,16.75
2023-02-23T02:26:20.801Z,17.13
2023-02-23T02:29:34.870Z,15.65
2023-02-23T02:32:54.193Z,15.02
2023-02-23T02:36:07.884Z,15.77
2023-02-23T02:39:34.976Z,16.58
2023-02-23T02:42:51.141Z,16.85
2023-02-23T02:46:06.018Z,16.27
2023-02-23T03:32:11.263Z,17.10
2023-02-23T03:35:42.310Z,17.23
2023-02-23T03:39:04.312Z,16.10
2023-02-23T03:42:12.666Z,16.50
2023-02-23T03:45:23.182Z,16.60
2023-02-23T03:48:32.251Z,15.95
2023-02-23T03:51:42.987Z,16.23
2023-02-23T03:54:58.025Z,16.55
2023-02-23T03:58:11.693Z,15.93
2023-02-23T04:01:20.937Z,16.90
2023-02-23T04:04:29.496Z,16.73
2023-02-23T04:07:40.143Z,16.75
2023-02-23T04:10:47.635Z,17.27
2023-02-23T04:13:38.550Z,16.38
2023-02-23T04:16:24.739Z,17.70
2023-02-23T04:19:11.615Z,16.42
2023-02-23T04:21:57.096Z,17.25
2023-02-23T04:24:42.674Z,16.55
2023-02-23T04:27:28.673Z,16.90
2023-02-23T04:30:15.803Z,16.98
2023-02-23T04:33:01.685Z,18.60
2023-02-23T04:35:48.017Z,17.10
2023-02-23T04:40:28.174Z,16.40
2023-02-23T04:43:16.216Z,17.58
2023-02-23T04:46:02.118Z,18.35
2023-02-23T04:48:47.767Z,17.40
2023-02-23T04:51:34.263Z,18.20
2023-02-23T04:54:20.481Z,17.58
2023-02-23T05:06:21.920Z,18.42
2023-02-23T05:09:10.639Z,18.65
2023-02-23T05:11:56.580Z,17.27
2023-02-23T05:14:42.465Z,18.42
2023-02-23T05:17:28.591Z,18.75
2023-02-23T05:20:15.140Z,18.88
2023-02-23T05:23:01.155Z,19.33
2023-02-23T05:25:46.616Z,19.00
2023-02-23T05:28:34.630Z,19.25
2023-02-23T05:31:21.103Z,19.30
2023-02-23T05:34:07.202Z,19.92
2023-02-23T05:36:54.314Z,18.55
2023-02-23T05:39:41.134Z,15.98
2023-02-23T05:42:26.637Z,18.02
2023-02-23T05:45:15.691Z,19.42
2023-02-23T05:48:01.896Z,19.38
2023-02-23T05:50:47.434Z,20.38
2023-02-23T05:53:33.927Z,18.70
2023-02-23T05:56:23.393Z,21.27
2023-02-23T06:09:10.452Z,20.35
2023-02-23T06:12:02.978Z,18.27
2023-02-23T06:14:51.176Z,21.40
2023-02-23T06:17:37.765Z,18.70
2023-02-23T06:20:34.065Z,21.40
2023-02-23T06:23:21.723Z,20.20
2023-02-23T06:26:13.524Z,20.80
2023-02-23T06:28:59.208Z,20.02
2023-02-23T06:32:27.313Z,18.92
2023-02-23T06:35:13.383Z,20.13
2023-02-23T06:38:00.187Z,20.55
2023-02-23T06:40:45.959Z,19.70
2023-02-23T06:48:28.466Z,20.75
2023-02-23T06:51:14.892Z,19.58
2023-02-23T06:54:01.245Z,19.85
2023-02-23T06:57:02.462Z,20.65
2023-02-23T06:59:49.808Z,21.83
2023-02-23T07:17:59.742Z,19.80
2023-02-23T07:20:48.210Z,19.35
2023-02-23T07:23:38.149Z,19.65
2023-02-23T09:18:46.374Z,21.30
2023-02-23T09:29:12.761Z,20.15
2023-02-23T09:32:24.806Z,19.63
2023-02-23T10:42:30.766Z,14.65
2023-02-23T10:45:24.838Z,15.18
2023-02-23T10:48:24.600Z,15.85
2023-02-23T10:51:26.870Z,15.30
2023-02-23T10:54:44.210Z,16.15
2023-02-23T10:57:34.694Z,16.52
2023-02-23T11:00:21.454Z,15.38
2023-02-23T11:03:26.400Z,14.60
2023-02-23T11:06:37.542Z,16.30
2023-02-23T11:09:41.853Z,14.88
2023-02-23T11:12:43.305Z,14.40
2023-02-23T11:15:49.286Z,14.50
2023-02-23T11:18:41.002Z,14.70
2023-02-23T11:21:35.074Z,14.88
2023-02-23T11:24:41.438Z,13.98
2023-02-23T11:27:28.281Z,14.80
2023-02-23T11:30:19.434Z,14.93
2023-02-23T11:33:21.603Z,14.85
2023-02-23T11:36:32.681Z,14.40
2023-02-23T11:39:22.930Z,12.23
2023-02-23T11:42:25.408Z,11.98
2023-02-23T11:46:26.642Z,13.93
2023-02-23T11:49:36.063Z,12.15
2023-02-23T11:52:26.114Z,13.65
2023-02-23T11:55:20.130Z,13.00
2023-02-23T11:58:39.475Z,13.15
2023-02-23T12:01:47.159Z,11.77
2023-02-23T12:04:39.146Z,13.32
2023-02-23T12:07:42.193Z,12.07
2023-02-23T12:13:44.651Z,13.45
2023-02-23T12:16:44.742Z,11.98
2023-02-23T12:19:44.212Z,12.98
2023-02-23T12:22:40.747Z,11.43
2023-02-23T12:25:44.513Z,12.10
2023-02-23T12:37:01.717Z,12.27
2023-02-23T12:40:15.412Z,12.10
2023-02-23T12:53:44.332Z,11.40
2023-02-23T12:57:23.903Z,11.55
2023-02-23T13:00:41.054Z,11.38
2023-02-23T13:53:47.177Z,13.27
2023-02-23T14:02:36.761Z,12.93
2023-02-23T14:05:45.204Z,12.75
2023-02-23T14:08:45.329Z,12.85
2023-02-23T14:11:51.056Z,11.63
2023-02-23T14:14:37.462Z,12.60
2023-02-23T14:17:23.636Z,12.45
2023-02-23T14:20:29.343Z,11.93
2023-02-23T14:23:20.703Z,11.82
2023-02-23T14:26:36.381Z,12.00
2023-02-23T14:29:25.877Z,11.77
2023-02-23T14:32:21.151Z,13.65
2023-02-23T14:35:32.645Z,13.48
2023-02-23T14:38:47.162Z,14.68
2023-02-23T14:41:57.866Z,14.27
2023-02-23T14:44:51.541Z,16.10
2023-02-23T14:47:55.727Z,17.05
2023-02-23T14:50:43.711Z,18.00
2023-02-23T14:53:36.382Z,19.60
2023-02-23T14:56:35.566Z,20.38
2023-02-23T15:00:43.433Z,20.38
2023-02-23T15:03:14.993Z,20.83
2023-02-23T15:05:44.944Z,21.38
2023-02-23T15:14:38.485Z,24.00
2023-02-23T15:17:13.214Z,23.70
2023-02-23T15:19:40.792Z,23.58
2023-02-23T15:22:10.913Z,23.60
2023-02-23T15:24:50.118Z,24.70
2023-02-23T15:28:23.645Z,22.63
2023-02-23T15:35:04.800Z,24.20
2023-02-23T15:37:59.557Z,23.48
2023-02-23T15:40:39.045Z,24.02
2023-02-23T15:43:11.171Z,23.08
2023-02-23T15:45:50.055Z,23.92
2023-02-23T15:48:24.697Z,23.20
2023-02-23T15:50:58.012Z,24.52
2023-02-23T15:53:40.084Z,24.60
2023-02-23T15:56:16.403Z,25.42
2023-02-23T15:58:56.932Z,25.20
2023-02-23T16:01:34.118Z,25.60
2023-02-23T16:04:17.150Z,25.92
2023-02-23T16:07:06.745Z,25.60
2023-02-23T16:09:39.532Z,25.25
2023-02-23T16:12:20.987Z,25.13
2023-02-23T16:14:55.028Z,25.80
2023-02-23T16:17:44.207Z,26.15
2023-02-23T16:20:38.462Z,27.73
2023-02-23T16:23:17.744Z,26.02
2023-02-23T16:26:01.409Z,25.90
2023-02-23T16:28:46.579Z,26.52
2023-02-23T16:31:28.238Z,25.42
2023-02-23T16:34:00.713Z,27.73
2023-02-23T16:37:18.075Z,25.50
2023-02-23T16:39:46.052Z,26.20
2023-02-23T16:43:00.854Z,26.98
2023-02-23T16:45:32.776Z,27.73
2023-02-23T16:48:18.936Z,28.20
2023-02-23T16:53:58.885Z,28.05
2023-02-23T16:56:33.536Z,27.52
2023-02-23T16:59:15.584Z,28.85
2023-02-23T17:01:46.638Z,28.88
2023-02-23T17:04:23.246Z,28.33
2023-02-23T17:06:58.051Z,28.92
2023-02-23T17:09:25.625Z,29.35
2023-02-23T17:11:52.943Z,30.50
2023-02-23T17:14:28.299Z,29.15
2023-02-23T17:17:15.084Z,30.30
2023-02-23T17:19:44.183Z,29.08
2023-02-23T17:22:13.519Z,29.00
2023-02-23T17:24:43.371Z,29.67
2023-02-23T17:30:27.091Z,31.25
2023-02-23T17:32:58.564Z,30.77
2023-02-23T17:35:26.695Z,30.95
2023-02-23T17:37:54.581Z,32.80
2023-02-23T17:40:36.621Z,32.38
2023-02-23T17:43:09.494Z,31.38
2023-02-23T17:45:36.832Z,31.40
2023-02-23T17:48:04.160Z,31.23
2023-02-23T17:50:31.680Z,33.00
2023-02-23T17:52:59.259Z,33.80
2023-02-23T17:55:58.582Z,32.00
2023-02-23T17:58:26.633Z,35.83
2023-02-23T18:00:56.383Z,35.38
2023-02-23T18:03:25.539Z,35.35
2023-02-23T18:06:11.667Z,37.17
2023-02-23T18:08:42.455Z,35.05
2023-02-23T18:11:10.675Z,39.85
2023-02-23T18:13:46.831Z,42.28
2023-02-23T18:16:16.097Z,41.20
2023-02-23T18:18:53.749Z,41.45
2023-02-23T18:21:22.706Z,42.78
2023-02-23T18:23:51.520Z,41.83
2023-02-23T18:26:35.604Z,43.00
2023-02-23T18:32:07.810Z,45.80
2023-02-23T18:34:35.531Z,46.08
2023-02-23T18:37:04.443Z,45.38
2023-02-23T18:39:33.000Z,45.15
2023-02-23T18:42:07.448Z,46.08
2023-02-23T18:44:35.321Z,49.75
2023-02-23T18:47:02.619Z,45.50
2023-02-23T18:49:30.078Z,45.85
2023-02-23T18:51:58.149Z,48.47
2023-02-23T18:54:26.076Z,45.63
2023-02-23T18:56:55.279Z,47.35
2023-02-23T18:59:22.442Z,47.65
2023-02-23T19:01:49.642Z,50.30
2023-02-23T19:04:20.335Z,50.13
2023-02-23T19:06:48.429Z,48.00
2023-02-23T19:09:21.411Z,49.72
2023-02-23T19:11:50.672Z,51.85
2023-02-23T19:14:26.109Z,54.17
2023-02-23T19:17:00.275Z,53.45
2023-02-23T19:19:27.863Z,51.75
2023-02-23T19:21:58.927Z,54.05
2023-02-23T19:24:26.202Z,55.83
2023-02-23T19:26:53.341Z,51.95
2023-02-23T19:29:20.652Z,53.78
2023-02-23T19:31:50.012Z,49.63
2023-02-23T19:34:17.324Z,49.53
2023-02-23T19:36:47.159Z,49.35
2023-02-23T19:39:15.684Z,46.83
2023-02-23T19:41:45.616Z,43.97
2023-02-23T19:44:15.140Z,45.47
2023-02-23T19:46:43.018Z,46.53
2023-02-23T19:49:10.703Z,45.30
2023-02-23T19:51:37.943Z,44.50
2023-02-23T19:54:06.384Z,41.85
2023-02-23T19:56:34.156Z,41.13
2023-02-23T19:59:02.338Z,39.15
2023-02-23T20:01:32.964Z,40.67
2023-02-23T20:04:06.606Z,35.85
2023-02-23T20:06:44.891Z,36.80
2023-02-23T20:09:12.392Z,36.65
2023-02-23T20:11:40.722Z,37.47
2023-02-23T20:14:08.328Z,35.42
2023-02-23T20:16:35.782Z,36.78
2023-02-23T20:19:10.159Z,38.30
2023-02-23T20:21:37.447Z,37.92
2023-02-23T20:24:05.530Z,38.42
2023-02-23T20:26:37.240Z,41.63
2023-02-23T20:29:10.705Z,39.10
2023-02-23T20:31:41.907Z,40.05
2023-02-23T20:34:13.324Z,38.05
2023-02-23T20:36:40.545Z,37.55
2023-02-23T20:39:10.805Z,36.47
2023-02-23T20:41:43.307Z,38.88
2023-02-23T20:46:44.469Z,36.83
2023-02-23T20:49:14.361Z,37.75
2023-02-23T20:51:46.127Z,37.22
2023-02-23T20:54:15.103Z,37.92
2023-02-23T20:56:43.677Z,36.53
2023-02-23T20:59:12.124Z,39.03
2023-02-23T21:01:45.291Z,35.08
2023-02-23T21:04:13.259Z,33.88
2023-02-23T21:06:40.487Z,36.13
2023-02-23T21:09:12.673Z,35.05
2023-02-23T21:14:08.686Z,35.58
2023-02-23T21:16:36.684Z,35.50
2023-02-23T21:19:06.832Z,36.50
2023-02-23T21:21:43.680Z,36.40
2023-02-23T21:24:12.495Z,37.47
2023-02-23T21:26:39.532Z,35.50
2023-02-23T21:29:15.098Z,37.58
2023-02-23T21:31:45.418Z,37.47
2023-02-23T21:34:15.486Z,35.17
2023-02-23T21:36:42.720Z,36.45
2023-02-23T21:39:09.918Z,35.00
2023-02-23T21:41:37.884Z,35.90
2023-02-23T21:44:08.516Z,39.35
2023-02-23T21:46:35.769Z,40.20
2023-02-23T21:49:09.981Z,47.15
2023-02-23T21:51:37.841Z,48.10
2023-02-23T21:54:06.132Z,43.05
2023-02-23T21:56:34.780Z,51.10
2023-02-23T21:59:08.371Z,49.72
2023-02-23T22:01:39.625Z,50.90
2023-02-23T22:04:11.107Z,54.67
2023-02-23T22:06:44.329Z,50.97
2023-02-23T22:09:12.722Z,54.85
2023-02-23T22:11:46.502Z,54.70
2023-02-23T22:14:18.108Z,56.00
2023-02-23T22:16:46.034Z,55.60
2023-02-23T22:19:13.231Z,57.67
2023-02-23T22:21:42.180Z,54.30
2023-02-23T22:24:12.825Z,58.70
2023-02-23T22:26:50.436Z,55.83
2023-02-23T22:29:17.904Z,59.72
2023-02-23T22:31:45.207Z,56.03
2023-02-23T22:34:12.519Z,55.90
2023-02-23T22:36:39.850Z,62.85
2023-02-23T22:39:18.752Z,59.70
2023-02-23T22:52:00.186Z,52.60
2023-02-23T22:59:28.619Z,44.53
2023-02-23T23:01:57.504Z,48.47
2023-02-23T23:04:26.122Z,49.33
2023-02-23T23:06:56.537Z,50.92
2023-02-23T23:09:23.688Z,47.08
2023-02-23T23:11:54.084Z,48.75
2023-02-23T23:14:22.138Z,49.17
2023-02-23T23:16:54.257Z,48.40
2023-02-23T23:19:25.819Z,46.85
2023-02-23T23:21:55.943Z,49.73
2023-02-23T23:24:24.856Z,46.78
2023-02-23T23:27:00.493Z,48.97
2023-02-23T23:29:32.538Z,46.08
2023-02-23T23:32:01.741Z,50.67
2023-02-23T23:34:29.119Z,50.47
2023-02-23T23:36:56.807Z,50.50
2023-02-23T23:39:26.095Z,52.15
2023-02-23T23:41:54.607Z,52.42
2023-02-23T23:44:29.582Z,56.17
2023-02-23T23:46:59.414Z,55.00
2023-02-23T23:49:26.572Z,55.38
2023-02-23T23:51:56.735Z,49.38
2023-02-23T23:54:30.838Z,52.20
2023-02-23T23:57:03.726Z,54.53
2023-02-23T23:59:32.603Z,54.92
